sensor_id;sensor_type;location;lat;lon;timestamp;temperature;humidity
13682;DHT22;6913;49.892;7.936;2023-02-11T00:01:48;0.70;99.90
13682;DHT22;6913;49.892;7.936;2023-02-11T00:04:15;0.70;99.90
13682;DHT22;6913;49.892;7.936;2023-02-11T00:06:42;0.70;99.90
13682;DHT22;6913;49.892;7.936;2023-02-11T00:09:10;0.80;99.90
13682;DHT22;6913;49.892;7.936;2023-02-11T00:11:38;0.80;99.90
13682;DHT22;6913;49.892;7.936;2023-02-11T00:14:06;0.90;99.90
13682;DHT22;6913;49.892;7.936;2023-02-11T00:16:33;0.90;99.90
13682;DHT22;6913;49.892;7.936;2023-02-11T00:19:01;1.00;99.90
13682;DHT22;6913;49.892;7.936;2023-02-11T00:21:30;0.90;99.90
13682;DHT22;6913;49.892;7.936;2023-02-11T00:23:57;0.80;99.90
13682;DHT22;6913;49.892;7.936;2023-02-11T00:26:28;0.90;99.90
13682;DHT22;6913;49.892;7.936;2023-02-11T00:28:56;1.00;99.90
13682;DHT22;6913;49.892;7.936;2023-02-11T00:31:23;1.00;99.90
13682;DHT22;6913;49.892;7.936;2023-02-11T00:33:51;1.00;99.90
13682;DHT22;6913;49.892;7.936;2023-02-11T00:36:19;1.00;99.90
13682;DHT22;6913;49.892;7.936;2023-02-11T00:38:47;1.00;99.90
13682;DHT22;6913;49.892;7.936;2023-02-11T00:41:15;1.00;99.90
13682;DHT22;6913;49.892;7.936;2023-02-11T00:43:42;1.10;99.90
13682;DHT22;6913;49.892;7.936;2023-02-11T00:46:11;1.00;99.90
13682;DHT22;6913;49.892;7.936;2023-02-11T00:48:38;1.00;99.90
13682;DHT22;6913;49.892;7.936;2023-02-11T00:51:05;1.00;99.90
13682;DHT22;6913;49.892;7.936;2023-02-11T00:53:32;1.10;99.90
13682;DHT22;6913;49.892;7.936;2023-02-11T00:55:59;1.20;99.90
13682;DHT22;6913;49.892;7.936;2023-02-11T00:58:26;1.20;99.90
13682;DHT22;6913;49.892;7.936;2023-02-11T01:00:54;1.20;99.90
13682;DHT22;6913;49.892;7.936;2023-02-11T01:03:22;1.10;99.90
13682;DHT22;6913;49.892;7.936;2023-02-11T01:05:49;1.10;99.90
13682;DHT22;6913;49.892;7.936;2023-02-11T01:08:16;1.20;99.90
13682;DHT22;6913;49.892;7.936;2023-02-11T01:10:43;1.20;99.90
13682;DHT22;6913;49.892;7.936;2023-02-11T01:13:10;1.20;99.90
13682;DHT22;6913;49.892;7.936;2023-02-11T01:15:37;1.20;99.90
13682;DHT22;6913;49.892;7.936;2023-02-11T01:18:04;1.30;99.90
13682;DHT22;6913;49.892;7.936;2023-02-11T01:20:32;1.30;99.90
13682;DHT22;6913;49.892;7.936;2023-02-11T01:22:59;1.30;99.90
13682;DHT22;6913;49.892;7.936;2023-02-11T01:25:26;1.30;99.90
13682;DHT22;6913;49.892;7.936;2023-02-11T01:27:52;1.30;99.90
13682;DHT22;6913;49.892;7.936;2023-02-11T01:30:19;1.40;99.90
13682;DHT22;6913;49.892;7.936;2023-02-11T01:32:46;1.30;99.90
13682;DHT22;6913;49.892;7.936;2023-02-11T01:35:13;1.30;99.90
13682;DHT22;6913;49.892;7.936;2023-02-11T01:37:41;1.30;99.90
13682;DHT22;6913;49.892;7.936;2023-02-11T01:40:12;1.30;99.90
13682;DHT22;6913;49.892;7.936;2023-02-11T01:42:38;1.30;99.90
13682;DHT22;6913;49.892;7.936;2023-02-11T01:48:23;1.30;99.90
13682;DHT22;6913;49.892;7.936;2023-02-11T01:50:54;1.40;99.90
13682;DHT22;6913;49.892;7.936;2023-02-11T01:53:24;1.40;99.90
13682;DHT22;6913;49.892;7.936;2023-02-11T01:56:09;1.40;99.90
13682;DHT22;6913;49.892;7.936;2023-02-11T01:58:52;1.40;99.90
13682;DHT22;6913;49.892;7.936;2023-02-11T02:01:23;1.30;99.90
13682;DHT22;6913;49.892;7.936;2023-02-11T02:03:52;1.40;99.90
13682;DHT22;6913;49.892;7.936;2023-02-11T02:06:24;1.50;99.90
13682;DHT22;6913;49.892;7.936;2023-02-11T02:08:56;1.60;99.90
13682;DHT22;6913;49.892;7.936;2023-02-11T02:11:25;1.90;99.90
13682;DHT22;6913;49.892;7.936;2023-02-11T02:13:52;1.80;99.90
13682;DHT22;6913;49.892;7.936;2023-02-11T02:16:20;1.80;99.90
13682;DHT22;6913;49.892;7.936;2023-02-11T02:18:52;1.90;99.90
13682;DHT22;6913;49.892;7.936;2023-02-11T02:21:41;2.00;99.90
13682;DHT22;6913;49.892;7.936;2023-02-11T02:24:30;2.40;99.90
13682;DHT22;6913;49.892;7.936;2023-02-11T02:27:28;2.00;99.90
13682;DHT22;6913;49.892;7.936;2023-02-11T02:33:23;2.10;99.90
13682;DHT22;6913;49.892;7.936;2023-02-11T02:35:56;2.10;99.90
13682;DHT22;6913;49.892;7.936;2023-02-11T02:38:30;2.20;99.90
13682;DHT22;6913;49.892;7.936;2023-02-11T02:41:02;2.20;99.90
13682;DHT22;6913;49.892;7.936;2023-02-11T02:43:30;2.10;99.90
13682;DHT22;6913;49.892;7.936;2023-02-11T02:46:12;2.10;99.90
13682;DHT22;6913;49.892;7.936;2023-02-11T02:48:41;2.10;99.90
13682;DHT22;6913;49.892;7.936;2023-02-11T02:51:19;2.20;99.90
13682;DHT22;6913;49.892;7.936;2023-02-11T02:53:58;2.20;99.90
13682;DHT22;6913;49.892;7.936;2023-02-11T02:56:35;2.30;99.90
13682;DHT22;6913;49.892;7.936;2023-02-11T02:59:24;2.40;99.90
13682;DHT22;6913;49.892;7.936;2023-02-11T03:02:00;2.30;99.90
13682;DHT22;6913;49.892;7.936;2023-02-11T03:04:36;2.30;99.90
13682;DHT22;6913;49.892;7.936;2023-02-11T03:07:09;2.30;99.90
13682;DHT22;6913;49.892;7.936;2023-02-11T03:09:40;2.40;99.90
13682;DHT22;6913;49.892;7.936;2023-02-11T03:12:09;2.80;99.90
13682;DHT22;6913;49.892;7.936;2023-02-11T03:14:38;2.60;99.90
13682;DHT22;6913;49.892;7.936;2023-02-11T03:17:08;2.60;99.90
13682;DHT22;6913;49.892;7.936;2023-02-11T03:19:38;2.60;99.90
13682;DHT22;6913;49.892;7.936;2023-02-11T03:22:10;2.90;99.90
13682;DHT22;6913;49.892;7.936;2023-02-11T03:24:38;2.60;99.90
13682;DHT22;6913;49.892;7.936;2023-02-11T03:27:11;2.90;99.90
13682;DHT22;6913;49.892;7.936;2023-02-11T03:29:50;2.70;99.90
13682;DHT22;6913;49.892;7.936;2023-02-11T03:32:23;2.70;99.90
13682;DHT22;6913;49.892;7.936;2023-02-11T03:34:56;2.60;99.90
13682;DHT22;6913;49.892;7.936;2023-02-11T03:37:27;2.60;99.90
13682;DHT22;6913;49.892;7.936;2023-02-11T03:39:59;2.60;99.90
13682;DHT22;6913;49.892;7.936;2023-02-11T03:42:30;2.60;99.90
13682;DHT22;6913;49.892;7.936;2023-02-11T03:45:04;2.60;99.90
13682;DHT22;6913;49.892;7.936;2023-02-11T03:47:34;2.60;99.90
13682;DHT22;6913;49.892;7.936;2023-02-11T03:50:06;2.60;99.90
13682;DHT22;6913;49.892;7.936;2023-02-11T03:52:34;2.70;99.90
13682;DHT22;6913;49.892;7.936;2023-02-11T03:55:04;2.70;99.90
13682;DHT22;6913;49.892;7.936;2023-02-11T03:57:33;2.80;99.90
13682;DHT22;6913;49.892;7.936;2023-02-11T04:00:00;2.80;99.90
13682;DHT22;6913;49.892;7.936;2023-02-11T04:02:29;2.70;99.90
13682;DHT22;6913;49.892;7.936;2023-02-11T04:04:57;2.80;99.90
13682;DHT22;6913;49.892;7.936;2023-02-11T04:07:25;2.80;99.90
13682;DHT22;6913;49.892;7.936;2023-02-11T04:09:53;2.80;99.90
13682;DHT22;6913;49.892;7.936;2023-02-11T04:12:19;2.80;99.90
13682;DHT22;6913;49.892;7.936;2023-02-11T04:14:46;3.00;99.90
13682;DHT22;6913;49.892;7.936;2023-02-11T04:17:13;2.70;99.90
13682;DHT22;6913;49.892;7.936;2023-02-11T04:19:40;2.70;99.90
13682;DHT22;6913;49.892;7.936;2023-02-11T04:22:07;2.80;99.90
13682;DHT22;6913;49.892;7.936;2023-02-11T04:24:35;2.80;99.90
13682;DHT22;6913;49.892;7.936;2023-02-11T04:27:03;2.80;99.90
13682;DHT22;6913;49.892;7.936;2023-02-11T04:29:29;2.80;99.90
13682;DHT22;6913;49.892;7.936;2023-02-11T04:31:56;2.80;99.90
13682;DHT22;6913;49.892;7.936;2023-02-11T04:34:23;2.90;99.90
13682;DHT22;6913;49.892;7.936;2023-02-11T04:36:50;2.80;99.90
13682;DHT22;6913;49.892;7.936;2023-02-11T04:39:17;2.80;99.90
13682;DHT22;6913;49.892;7.936;2023-02-11T04:41:46;2.70;99.90
13682;DHT22;6913;49.892;7.936;2023-02-11T04:44:12;2.70;99.90
13682;DHT22;6913;49.892;7.936;2023-02-11T04:46:39;2.80;99.90
13682;DHT22;6913;49.892;7.936;2023-02-11T04:49:06;2.80;99.90
13682;DHT22;6913;49.892;7.936;2023-02-11T04:51:33;2.90;99.90
13682;DHT22;6913;49.892;7.936;2023-02-11T04:54:00;2.90;99.90
13682;DHT22;6913;49.892;7.936;2023-02-11T04:56:27;3.00;99.90
13682;DHT22;6913;49.892;7.936;2023-02-11T04:58:55;3.00;99.90
13682;DHT22;6913;49.892;7.936;2023-02-11T05:01:22;3.00;99.90
13682;DHT22;6913;49.892;7.936;2023-02-11T05:03:49;3.00;99.90
13682;DHT22;6913;49.892;7.936;2023-02-11T05:06:16;3.00;99.90
13682;DHT22;6913;49.892;7.936;2023-02-11T05:08:43;3.00;99.90
13682;DHT22;6913;49.892;7.936;2023-02-11T05:11:15;3.00;99.90
13682;DHT22;6913;49.892;7.936;2023-02-11T05:13:42;3.00;99.90
13682;DHT22;6913;49.892;7.936;2023-02-11T05:16:11;3.20;99.90
13682;DHT22;6913;49.892;7.936;2023-02-11T05:18:39;3.00;99.90
13682;DHT22;6913;49.892;7.936;2023-02-11T05:21:07;3.20;99.90
13682;DHT22;6913;49.892;7.936;2023-02-11T05:23:34;3.00;99.90
13682;DHT22;6913;49.892;7.936;2023-02-11T05:26:02;3.40;99.90
13682;DHT22;6913;49.892;7.936;2023-02-11T05:28:29;3.00;99.90
13682;DHT22;6913;49.892;7.936;2023-02-11T05:30:56;2.90;99.90
13682;DHT22;6913;49.892;7.936;2023-02-11T05:33:24;3.00;99.90
13682;DHT22;6913;49.892;7.936;2023-02-11T05:35:51;2.90;99.90
13682;DHT22;6913;49.892;7.936;2023-02-11T05:38:18;2.90;99.90
13682;DHT22;6913;49.892;7.936;2023-02-11T05:40:44;2.90;99.90
13682;DHT22;6913;49.892;7.936;2023-02-11T05:43:11;2.90;99.90
13682;DHT22;6913;49.892;7.936;2023-02-11T05:45:38;2.90;99.90
13682;DHT22;6913;49.892;7.936;2023-02-11T05:48:05;2.90;99.90
13682;DHT22;6913;49.892;7.936;2023-02-11T05:50:33;2.80;99.90
13682;DHT22;6913;49.892;7.936;2023-02-11T05:53:00;2.80;99.90
13682;DHT22;6913;49.892;7.936;2023-02-11T05:55:27;2.70;99.90
13682;DHT22;6913;49.892;7.936;2023-02-11T05:57:54;2.90;99.90
13682;DHT22;6913;49.892;7.936;2023-02-11T06:00:21;2.60;99.90
13682;DHT22;6913;49.892;7.936;2023-02-11T06:02:48;2.60;99.90
13682;DHT22;6913;49.892;7.936;2023-02-11T06:05:15;2.60;99.90
13682;DHT22;6913;49.892;7.936;2023-02-11T06:07:43;2.60;99.90
13682;DHT22;6913;49.892;7.936;2023-02-11T06:10:10;3.10;99.90
13682;DHT22;6913;49.892;7.936;2023-02-11T06:12:38;2.60;99.90
13682;DHT22;6913;49.892;7.936;2023-02-11T06:15:05;2.90;99.90
13682;DHT22;6913;49.892;7.936;2023-02-11T06:17:32;2.60;99.90
13682;DHT22;6913;49.892;7.936;2023-02-11T06:20:02;2.40;99.90
13682;DHT22;6913;49.892;7.936;2023-02-11T06:22:29;2.40;99.90
13682;DHT22;6913;49.892;7.936;2023-02-11T06:24:57;2.20;99.90
13682;DHT22;6913;49.892;7.936;2023-02-11T06:27:24;2.00;99.90
13682;DHT22;6913;49.892;7.936;2023-02-11T06:29:51;2.10;99.90
13682;DHT22;6913;49.892;7.936;2023-02-11T06:32:18;2.20;99.90
13682;DHT22;6913;49.892;7.936;2023-02-11T06:34:46;2.20;99.90
13682;DHT22;6913;49.892;7.936;2023-02-11T06:37:12;2.50;99.90
13682;DHT22;6913;49.892;7.936;2023-02-11T06:39:39;2.20;99.90
13682;DHT22;6913;49.892;7.936;2023-02-11T06:42:08;2.90;99.90
13682;DHT22;6913;49.892;7.936;2023-02-11T06:44:35;2.00;99.90
13682;DHT22;6913;49.892;7.936;2023-02-11T06:47:02;1.90;99.90
13682;DHT22;6913;49.892;7.936;2023-02-11T06:49:29;1.90;99.90
13682;DHT22;6913;49.892;7.936;2023-02-11T06:51:56;2.00;99.90
13682;DHT22;6913;49.892;7.936;2023-02-11T06:54:23;2.40;99.90
13682;DHT22;6913;49.892;7.936;2023-02-11T06:56:50;2.20;99.90
13682;DHT22;6913;49.892;7.936;2023-02-11T06:59:19;2.30;99.90
13682;DHT22;6913;49.892;7.936;2023-02-11T07:01:46;2.70;99.90
13682;DHT22;6913;49.892;7.936;2023-02-11T07:04:13;2.20;99.90
13682;DHT22;6913;49.892;7.936;2023-02-11T07:06:40;2.30;99.90
13682;DHT22;6913;49.892;7.936;2023-02-11T07:09:07;2.40;99.90
13682;DHT22;6913;49.892;7.936;2023-02-11T07:11:34;2.40;99.90
13682;DHT22;6913;49.892;7.936;2023-02-11T07:14:03;2.50;99.90
13682;DHT22;6913;49.892;7.936;2023-02-11T07:16:32;2.50;99.90
13682;DHT22;6913;49.892;7.936;2023-02-11T07:18:59;2.50;99.90
13682;DHT22;6913;49.892;7.936;2023-02-11T07:21:26;2.50;99.90
13682;DHT22;6913;49.892;7.936;2023-02-11T07:23:53;2.50;99.90
13682;DHT22;6913;49.892;7.936;2023-02-11T07:26:22;2.50;99.90
13682;DHT22;6913;49.892;7.936;2023-02-11T07:28:50;2.40;99.90
13682;DHT22;6913;49.892;7.936;2023-02-11T07:31:19;2.40;99.90
13682;DHT22;6913;49.892;7.936;2023-02-11T07:33:50;2.40;99.90
13682;DHT22;6913;49.892;7.936;2023-02-11T07:36:17;2.80;99.90
13682;DHT22;6913;49.892;7.936;2023-02-11T07:38:44;2.50;99.90
13682;DHT22;6913;49.892;7.936;2023-02-11T07:41:13;2.70;99.90
13682;DHT22;6913;49.892;7.936;2023-02-11T07:43:41;3.00;99.90
13682;DHT22;6913;49.892;7.936;2023-02-11T07:46:10;3.30;99.90
13682;DHT22;6913;49.892;7.936;2023-02-11T07:48:37;3.60;99.90
13682;DHT22;6913;49.892;7.936;2023-02-11T07:51:07;4.00;99.90
13682;DHT22;6913;49.892;7.936;2023-02-11T07:53:34;3.90;99.90
13682;DHT22;6913;49.892;7.936;2023-02-11T07:56:02;3.80;99.90
13682;DHT22;6913;49.892;7.936;2023-02-11T07:58:29;3.70;99.90
13682;DHT22;6913;49.892;7.936;2023-02-11T08:01:00;3.80;99.90
13682;DHT22;6913;49.892;7.936;2023-02-11T08:03:27;3.70;99.90
13682;DHT22;6913;49.892;7.936;2023-02-11T08:05:54;4.10;99.90
13682;DHT22;6913;49.892;7.936;2023-02-11T08:08:24;4.20;99.90
13682;DHT22;6913;49.892;7.936;2023-02-11T08:10:51;3.90;99.90
13682;DHT22;6913;49.892;7.936;2023-02-11T08:13:18;4.00;99.90
13682;DHT22;6913;49.892;7.936;2023-02-11T08:15:45;4.40;99.90
13682;DHT22;6913;49.892;7.936;2023-02-11T08:18:12;4.20;99.90
13682;DHT22;6913;49.892;7.936;2023-02-11T08:20:39;4.50;99.90
13682;DHT22;6913;49.892;7.936;2023-02-11T08:23:06;4.90;99.90
13682;DHT22;6913;49.892;7.936;2023-02-11T08:25:34;5.00;99.90
13682;DHT22;6913;49.892;7.936;2023-02-11T08:28:01;5.00;99.90
13682;DHT22;6913;49.892;7.936;2023-02-11T08:30:28;5.10;99.90
13682;DHT22;6913;49.892;7.936;2023-02-11T08:32:55;5.30;99.90
13682;DHT22;6913;49.892;7.936;2023-02-11T08:35:22;5.40;99.90
13682;DHT22;6913;49.892;7.936;2023-02-11T08:37:50;5.60;99.90
13682;DHT22;6913;49.892;7.936;2023-02-11T08:40:17;5.30;99.90
13682;DHT22;6913;49.892;7.936;2023-02-11T08:42:46;5.20;99.90
13682;DHT22;6913;49.892;7.936;2023-02-11T08:45:15;5.50;99.90
13682;DHT22;6913;49.892;7.936;2023-02-11T08:47:42;5.20;99.90
13682;DHT22;6913;49.892;7.936;2023-02-11T08:50:09;6.00;99.90
13682;DHT22;6913;49.892;7.936;2023-02-11T08:52:36;5.30;99.90
13682;DHT22;6913;49.892;7.936;2023-02-11T08:55:03;5.10;99.90
13682;DHT22;6913;49.892;7.936;2023-02-11T08:57:30;5.20;99.90
13682;DHT22;6913;49.892;7.936;2023-02-11T08:59:58;5.20;99.90
13682;DHT22;6913;49.892;7.936;2023-02-11T09:02:25;5.50;99.90
13682;DHT22;6913;49.892;7.936;2023-02-11T09:04:52;5.40;99.90
13682;DHT22;6913;49.892;7.936;2023-02-11T09:07:19;5.50;99.90
13682;DHT22;6913;49.892;7.936;2023-02-11T09:09:46;5.90;99.90
13682;DHT22;6913;49.892;7.936;2023-02-11T09:12:13;6.00;99.90
13682;DHT22;6913;49.892;7.936;2023-02-11T09:14:39;6.00;99.90
13682;DHT22;6913;49.892;7.936;2023-02-11T09:17:08;5.90;99.90
13682;DHT22;6913;49.892;7.936;2023-02-11T09:19:35;6.30;99.90
13682;DHT22;6913;49.892;7.936;2023-02-11T09:22:02;6.40;99.90
13682;DHT22;6913;49.892;7.936;2023-02-11T09:24:29;7.30;99.90
13682;DHT22;6913;49.892;7.936;2023-02-11T09:26:56;7.10;99.90
13682;DHT22;6913;49.892;7.936;2023-02-11T09:29:23;7.00;99.90
13682;DHT22;6913;49.892;7.936;2023-02-11T09:31:50;7.10;99.90
13682;DHT22;6913;49.892;7.936;2023-02-11T09:34:18;7.20;99.90
13682;DHT22;6913;49.892;7.936;2023-02-11T09:36:45;7.20;99.90
13682;DHT22;6913;49.892;7.936;2023-02-11T09:39:14;7.20;99.90
13682;DHT22;6913;49.892;7.936;2023-02-11T09:42:00;7.10;99.90
13682;DHT22;6913;49.892;7.936;2023-02-11T09:44:34;7.10;99.90
13682;DHT22;6913;49.892;7.936;2023-02-11T09:47:03;7.00;99.90
13682;DHT22;6913;49.892;7.936;2023-02-11T09:49:42;7.00;99.90
13682;DHT22;6913;49.892;7.936;2023-02-11T09:52:15;6.90;99.90
13682;DHT22;6913;49.892;7.936;2023-02-11T09:54:50;6.90;99.90
13682;DHT22;6913;49.892;7.936;2023-02-11T09:57:19;7.00;99.90
13682;DHT22;6913;49.892;7.936;2023-02-11T09:59:46;6.90;99.90
13682;DHT22;6913;49.892;7.936;2023-02-11T10:02:21;6.90;99.90
13682;DHT22;6913;49.892;7.936;2023-02-11T10:05:22;7.30;99.90
13682;DHT22;6913;49.892;7.936;2023-02-11T10:07:58;7.10;99.90
13682;DHT22;6913;49.892;7.936;2023-02-11T10:10:38;7.00;99.90
13682;DHT22;6913;49.892;7.936;2023-02-11T10:13:27;7.00;99.90
13682;DHT22;6913;49.892;7.936;2023-02-11T10:16:01;7.00;99.90
13682;DHT22;6913;49.892;7.936;2023-02-11T10:18:54;6.90;99.90
13682;DHT22;6913;49.892;7.936;2023-02-11T10:21:31;6.80;99.90
13682;DHT22;6913;49.892;7.936;2023-02-11T10:24:05;6.90;99.90
13682;DHT22;6913;49.892;7.936;2023-02-11T10:26:36;7.00;99.90
13682;DHT22;6913;49.892;7.936;2023-02-11T10:29:11;7.00;99.90
13682;DHT22;6913;49.892;7.936;2023-02-11T10:31:41;7.00;99.90
13682;DHT22;6913;49.892;7.936;2023-02-11T10:34:12;7.00;99.90
13682;DHT22;6913;49.892;7.936;2023-02-11T10:36:42;6.90;99.90
13682;DHT22;6913;49.892;7.936;2023-02-11T10:39:11;7.00;99.90
13682;DHT22;6913;49.892;7.936;2023-02-11T10:41:43;6.90;99.90
13682;DHT22;6913;49.892;7.936;2023-02-11T10:44:21;7.00;99.90
13682;DHT22;6913;49.892;7.936;2023-02-11T10:46:49;7.00;99.90
13682;DHT22;6913;49.892;7.936;2023-02-11T10:49:33;7.10;99.90
13682;DHT22;6913;49.892;7.936;2023-02-11T10:52:16;7.10;99.90
13682;DHT22;6913;49.892;7.936;2023-02-11T10:54:55;7.20;99.90
13682;DHT22;6913;49.892;7.936;2023-02-11T10:57:26;7.20;99.90
13682;DHT22;6913;49.892;7.936;2023-02-11T10:59:57;7.30;99.90
13682;DHT22;6913;49.892;7.936;2023-02-11T11:02:28;7.30;99.90
13682;DHT22;6913;49.892;7.936;2023-02-11T11:04:58;7.30;99.90
13682;DHT22;6913;49.892;7.936;2023-02-11T11:07:28;7.30;99.90
13682;DHT22;6913;49.892;7.936;2023-02-11T11:09:58;7.20;99.90
13682;DHT22;6913;49.892;7.936;2023-02-11T11:12:33;7.30;99.90
13682;DHT22;6913;49.892;7.936;2023-02-11T11:15:13;7.60;99.90
13682;DHT22;6913;49.892;7.936;2023-02-11T11:17:42;7.40;99.90
13682;DHT22;6913;49.892;7.936;2023-02-11T11:20:21;7.30;99.90
13682;DHT22;6913;49.892;7.936;2023-02-11T11:22:52;7.30;99.90
13682;DHT22;6913;49.892;7.936;2023-02-11T11:25:32;7.30;99.90
13682;DHT22;6913;49.892;7.936;2023-02-11T11:28:00;7.40;99.90
13682;DHT22;6913;49.892;7.936;2023-02-11T11:30:32;7.50;99.90
13682;DHT22;6913;49.892;7.936;2023-02-11T11:33:14;7.50;99.90
13682;DHT22;6913;49.892;7.936;2023-02-11T11:35:56;7.60;99.90
13682;DHT22;6913;49.892;7.936;2023-02-11T11:38:26;7.80;99.90
13682;DHT22;6913;49.892;7.936;2023-02-11T11:41:17;7.90;99.90
13682;DHT22;6913;49.892;7.936;2023-02-11T11:43:55;7.90;99.90
13682;DHT22;6913;49.892;7.936;2023-02-11T11:46:24;8.10;99.90
13682;DHT22;6913;49.892;7.936;2023-02-11T11:48:54;8.30;99.90
13682;DHT22;6913;49.892;7.936;2023-02-11T11:51:23;8.50;99.90
13682;DHT22;6913;49.892;7.936;2023-02-11T11:53:56;8.50;99.90
13682;DHT22;6913;49.892;7.936;2023-02-11T11:56:26;8.70;99.90
13682;DHT22;6913;49.892;7.936;2023-02-11T11:58:55;8.90;99.90
13682;DHT22;6913;49.892;7.936;2023-02-11T12:01:33;9.00;99.90
13682;DHT22;6913;49.892;7.936;2023-02-11T12:04:19;9.10;99.90
13682;DHT22;6913;49.892;7.936;2023-02-11T12:06:59;9.10;99.90
13682;DHT22;6913;49.892;7.936;2023-02-11T12:09:36;9.00;99.90
13682;DHT22;6913;49.892;7.936;2023-02-11T12:15:06;8.90;99.90
13682;DHT22;6913;49.892;7.936;2023-02-11T12:17:50;9.00;99.90
13682;DHT22;6913;49.892;7.936;2023-02-11T12:20:33;9.00;99.90
13682;DHT22;6913;49.892;7.936;2023-02-11T12:23:20;9.00;99.90
13682;DHT22;6913;49.892;7.936;2023-02-11T12:26:00;8.80;99.90
13682;DHT22;6913;49.892;7.936;2023-02-11T12:28:37;8.90;99.90
13682;DHT22;6913;49.892;7.936;2023-02-11T12:31:14;8.70;99.90
13682;DHT22;6913;49.892;7.936;2023-02-11T12:39:32;8.70;99.90
13682;DHT22;6913;49.892;7.936;2023-02-11T12:46:03;8.50;99.90
13682;DHT22;6913;49.892;7.936;2023-02-11T12:49:04;8.40;99.90
13682;DHT22;6913;49.892;7.936;2023-02-11T12:51:43;8.30;99.90
13682;DHT22;6913;49.892;7.936;2023-02-11T12:54:24;8.10;99.90
13682;DHT22;6913;49.892;7.936;2023-02-11T12:56:55;8.10;99.90
13682;DHT22;6913;49.892;7.936;2023-02-11T12:59:43;8.40;99.90
13682;DHT22;6913;49.892;7.936;2023-02-11T13:02:20;8.20;99.90
13682;DHT22;6913;49.892;7.936;2023-02-11T13:04:52;8.20;99.90
13682;DHT22;6913;49.892;7.936;2023-02-11T13:07:24;8.40;99.90
13682;DHT22;6913;49.892;7.936;2023-02-11T13:09:58;8.30;99.90
13682;DHT22;6913;49.892;7.936;2023-02-11T13:12:28;8.30;99.90
13682;DHT22;6913;49.892;7.936;2023-02-11T13:15:15;8.60;99.90
13682;DHT22;6913;49.892;7.936;2023-02-11T13:17:51;8.40;99.90
13682;DHT22;6913;49.892;7.936;2023-02-11T13:20:28;8.40;99.90
13682;DHT22;6913;49.892;7.936;2023-02-11T13:23:00;8.30;99.90
13682;DHT22;6913;49.892;7.936;2023-02-11T13:25:35;8.30;99.90
13682;DHT22;6913;49.892;7.936;2023-02-11T13:28:18;8.70;99.90
13682;DHT22;6913;49.892;7.936;2023-02-11T13:30:49;8.50;99.90
13682;DHT22;6913;49.892;7.936;2023-02-11T13:33:31;8.60;99.90
13682;DHT22;6913;49.892;7.936;2023-02-11T13:36:18;8.50;99.90
13682;DHT22;6913;49.892;7.936;2023-02-11T13:38:59;8.60;99.90
13682;DHT22;6913;49.892;7.936;2023-02-11T13:41:34;8.70;99.90
13682;DHT22;6913;49.892;7.936;2023-02-11T13:44:12;8.80;99.90
13682;DHT22;6913;49.892;7.936;2023-02-11T13:46:57;8.90;99.90
13682;DHT22;6913;49.892;7.936;2023-02-11T13:49:30;8.90;99.90
13682;DHT22;6913;49.892;7.936;2023-02-11T13:51:59;9.30;99.90
13682;DHT22;6913;49.892;7.936;2023-02-11T13:54:31;9.00;99.90
13682;DHT22;6913;49.892;7.936;2023-02-11T13:57:24;9.00;99.90
13682;DHT22;6913;49.892;7.936;2023-02-11T13:59:53;8.90;99.90
13682;DHT22;6913;49.892;7.936;2023-02-11T14:02:24;9.00;99.90
13682;DHT22;6913;49.892;7.936;2023-02-11T14:05:23;9.00;99.90
13682;DHT22;6913;49.892;7.936;2023-02-11T14:08:26;8.80;99.90
13682;DHT22;6913;49.892;7.936;2023-02-11T14:11:44;8.80;99.90
13682;DHT22;6913;49.892;7.936;2023-02-11T14:14:20;8.60;99.90
13682;DHT22;6913;49.892;7.936;2023-02-11T14:17:41;8.50;99.90
13682;DHT22;6913;49.892;7.936;2023-02-11T14:20:33;8.50;99.90
13682;DHT22;6913;49.892;7.936;2023-02-11T14:23:01;8.50;99.90
13682;DHT22;6913;49.892;7.936;2023-02-11T14:25:29;8.50;99.90
13682;DHT22;6913;49.892;7.936;2023-02-11T14:28:00;8.50;99.90
13682;DHT22;6913;49.892;7.936;2023-02-11T14:30:37;8.50;99.90
13682;DHT22;6913;49.892;7.936;2023-02-11T14:33:27;8.50;99.90
13682;DHT22;6913;49.892;7.936;2023-02-11T14:36:05;8.50;99.90
13682;DHT22;6913;49.892;7.936;2023-02-11T14:38:44;8.80;99.90
13682;DHT22;6913;49.892;7.936;2023-02-11T14:41:18;8.50;99.90
13682;DHT22;6913;49.892;7.936;2023-02-11T14:43:48;8.50;99.90
13682;DHT22;6913;49.892;7.936;2023-02-11T14:46:19;8.50;99.90
13682;DHT22;6913;49.892;7.936;2023-02-11T14:48:50;8.50;99.90
13682;DHT22;6913;49.892;7.936;2023-02-11T14:51:19;8.60;99.90
13682;DHT22;6913;49.892;7.936;2023-02-11T14:53:51;8.50;99.90
13682;DHT22;6913;49.892;7.936;2023-02-11T14:56:20;8.50;99.90
13682;DHT22;6913;49.892;7.936;2023-02-11T14:58:50;8.40;99.90
13682;DHT22;6913;49.892;7.936;2023-02-11T15:01:26;8.50;99.90
13682;DHT22;6913;49.892;7.936;2023-02-11T15:03:55;8.60;99.90
13682;DHT22;6913;49.892;7.936;2023-02-11T15:06:28;8.70;99.90
13682;DHT22;6913;49.892;7.936;2023-02-11T15:08:58;8.60;99.90
13682;DHT22;6913;49.892;7.936;2023-02-11T15:11:28;8.80;99.90
13682;DHT22;6913;49.892;7.936;2023-02-11T15:14:04;8.50;99.90
13682;DHT22;6913;49.892;7.936;2023-02-11T15:16:33;8.60;99.90
13682;DHT22;6913;49.892;7.936;2023-02-11T15:19:03;8.50;99.90
13682;DHT22;6913;49.892;7.936;2023-02-11T15:21:33;8.60;99.90
13682;DHT22;6913;49.892;7.936;2023-02-11T15:24:02;8.70;99.90
13682;DHT22;6913;49.892;7.936;2023-02-11T15:26:31;8.50;99.90
13682;DHT22;6913;49.892;7.936;2023-02-11T15:28:58;8.40;99.90
13682;DHT22;6913;49.892;7.936;2023-02-11T15:31:26;8.40;99.90
13682;DHT22;6913;49.892;7.936;2023-02-11T15:33:54;8.40;99.90
13682;DHT22;6913;49.892;7.936;2023-02-11T15:36:23;8.40;99.90
13682;DHT22;6913;49.892;7.936;2023-02-11T15:39:30;8.50;99.90
13682;DHT22;6913;49.892;7.936;2023-02-11T15:45:21;8.60;99.90
13682;DHT22;6913;49.892;7.936;2023-02-11T15:47:55;8.40;99.90
13682;DHT22;6913;49.892;7.936;2023-02-11T15:50:25;8.40;99.90
13682;DHT22;6913;49.892;7.936;2023-02-11T15:52:54;8.50;99.90
13682;DHT22;6913;49.892;7.936;2023-02-11T15:55:22;8.30;99.90
13682;DHT22;6913;49.892;7.936;2023-02-11T15:57:52;8.30;99.90
13682;DHT22;6913;49.892;7.936;2023-02-11T16:00:22;8.30;99.90
13682;DHT22;6913;49.892;7.936;2023-02-11T16:02:50;8.40;99.90
13682;DHT22;6913;49.892;7.936;2023-02-11T16:05:25;8.60;99.90
13682;DHT22;6913;49.892;7.936;2023-02-11T16:07:54;8.10;99.90
13682;DHT22;6913;49.892;7.936;2023-02-11T16:10:24;8.30;99.90
13682;DHT22;6913;49.892;7.936;2023-02-11T16:13:16;8.10;99.90
13682;DHT22;6913;49.892;7.936;2023-02-11T16:15:47;8.20;99.90
13682;DHT22;6913;49.892;7.936;2023-02-11T16:18:25;8.10;99.90
13682;DHT22;6913;49.892;7.936;2023-02-11T16:20:53;8.10;99.90
13682;DHT22;6913;49.892;7.936;2023-02-11T16:23:24;8.10;99.90
13682;DHT22;6913;49.892;7.936;2023-02-11T16:25:59;8.10;99.90
13682;DHT22;6913;49.892;7.936;2023-02-11T16:28:27;8.10;99.90
13682;DHT22;6913;49.892;7.936;2023-02-11T16:30:55;8.40;99.90
13682;DHT22;6913;49.892;7.936;2023-02-11T16:33:22;8.10;99.90
13682;DHT22;6913;49.892;7.936;2023-02-11T16:35:49;8.10;99.90
13682;DHT22;6913;49.892;7.936;2023-02-11T16:38:16;8.10;99.90
13682;DHT22;6913;49.892;7.936;2023-02-11T16:40:45;8.20;99.90
13682;DHT22;6913;49.892;7.936;2023-02-11T16:43:14;8.20;99.90
13682;DHT22;6913;49.892;7.936;2023-02-11T16:45:43;8.10;99.90
13682;DHT22;6913;49.892;7.936;2023-02-11T16:48:15;8.00;99.90
13682;DHT22;6913;49.892;7.936;2023-02-11T16:50:45;7.90;99.90
13682;DHT22;6913;49.892;7.936;2023-02-11T16:53:15;7.70;99.90